Time;durP1;ratioP1;P1;durP2;ratioP2;P2;SDS_P1;SDS_P2;PMS_P1;PMS_P2;Temp;Humidity;BMP_temperature;BMP_pressure;BME280_temperature;BME280_humidity;BME280_pressure;Samples;Min_cycle;Max_cycle;Signal;HPM_P1;HPM_P2
2021/07/13 00:01:49;;;;;;;6.53;6.03;;;;;;;19.52;100.00;98303.16;10539585;28;20632;-79
2021/07/13 00:07:09;;;;;;;5.87;5.43;;;;;;;19.57;100.00;98291.31;10522239;28;20170;-78
2021/07/13 00:12:28;;;;;;;5.50;5.17;;;;;;;19.67;100.00;98303.94;10539497;28;20202;-78
2021/07/13 00:17:49;;;;;;;6.63;5.90;;;;;;;19.52;100.00;98301.13;10524137;28;20178;-77
2021/07/13 00:23:08;;;;;;;6.10;5.60;;;;;;;19.52;100.00;98305.94;10537548;28;20185;-77
2021/07/13 00:28:27;;;;;;;6.13;5.53;;;;;;;19.42;100.00;98293.31;10538412;28;20197;-78
2021/07/13 00:33:46;;;;;;;5.20;4.90;;;;;;;19.43;100.00;98289.28;10523386;28;20206;-78
2021/07/13 00:39:05;;;;;;;5.87;5.40;;;;;;;19.47;100.00;98299.00;10480594;28;20637;-78
2021/07/13 00:44:24;;;;;;;5.67;5.20;;;;;;;19.52;100.00;98303.91;10496366;28;20556;-78
2021/07/13 00:49:45;;;;;;;5.43;5.00;;;;;;;19.48;100.00;98305.34;10463246;28;20163;-78
2021/07/13 00:55:05;;;;;;;10.73;5.70;;;;;;;19.44;100.00;98304.75;10454882;28;20215;-78
2021/07/13 01:00:24;;;;;;;6.03;5.53;;;;;;;19.40;100.00;98309.75;10440090;28;20541;-79
2021/07/13 01:05:48;;;;;;;5.93;5.43;;;;;;;19.41;100.00;98289.75;10438536;28;20535;-78
2021/07/13 01:11:20;;;;;;;5.73;5.23;;;;;;;19.41;100.00;98292.53;10439854;28;20547;-79
2021/07/13 01:16:56;;;;;;;5.70;5.30;;;;;;;19.34;100.00;98292.13;10443735;28;20214;-78
2021/07/13 01:22:20;;;;;;;5.50;5.10;;;;;;;19.30;100.00;98280.41;10496604;28;20183;-77
2021/07/13 01:27:48;;;;;;;8.10;5.60;;;;;;;19.18;100.00;98284.19;10488363;28;20624;-77
2021/07/13 01:33:21;;;;;;;6.00;5.50;;;;;;;19.12;100.00;98297.25;10503146;28;20194;-78
2021/07/13 01:38:45;;;;;;;6.23;5.77;;;;;;;19.09;100.00;98277.88;10539494;28;20300;-77
2021/07/13 01:44:05;;;;;;;5.63;5.23;;;;;;;19.15;100.00;98285.13;10544694;28;20206;-78
2021/07/13 01:49:26;;;;;;;5.97;5.53;;;;;;;19.10;100.00;98285.78;10515000;28;20179;-77
2021/07/13 01:54:46;;;;;;;6.63;5.27;;;;;;;19.15;100.00;98299.06;10502156;28;20206;-77
2021/07/13 02:00:08;;;;;;;6.30;5.90;;;;;;;19.10;100.00;98294.16;10486840;28;20182;-78
2021/07/13 02:05:28;;;;;;;6.07;5.57;;;;;;;19.01;100.00;98285.81;10500745;28;20179;-77
2021/07/13 02:10:48;;;;;;;5.13;4.73;;;;;;;18.93;100.00;98281.09;10494139;28;20604;-78
2021/07/13 02:16:07;;;;;;;6.30;5.90;;;;;;;18.82;100.00;98276.00;10485811;28;20210;-77
2021/07/13 02:21:27;;;;;;;5.63;5.33;;;;;;;18.79;100.00;98287.34;10533012;28;20218;-77
2021/07/13 02:26:57;;;;;;;5.83;5.43;;;;;;;18.75;100.00;98275.59;10542218;28;20178;-78
2021/07/13 02:32:24;;;;;;;6.17;5.57;;;;;;;18.72;100.00;98263.41;10542860;28;20178;-78
2021/07/13 02:37:46;;;;;;;6.57;6.10;;;;;;;18.74;100.00;98268.50;10540809;28;20222;-78
2021/07/13 02:43:06;;;;;;;16.90;5.70;;;;;;;18.66;100.00;98272.88;10542199;28;20711;-78
2021/07/13 02:48:26;;;;;;;5.77;5.30;;;;;;;18.73;100.00;98275.31;10534307;28;20543;-78
2021/07/13 02:53:47;;;;;;;6.37;5.77;;;;;;;18.66;100.00;98262.47;10483289;28;20210;-79
2021/07/13 02:59:07;;;;;;;6.20;5.70;;;;;;;18.58;100.00;98264.06;10499664;28;20693;-79
2021/07/13 03:04:28;;;;;;;6.10;5.70;;;;;;;18.52;100.00;98257.59;10484309;28;20245;-80
2021/07/13 03:09:48;;;;;;;6.80;6.30;;;;;;;18.47;100.00;98249.91;10484185;28;20588;-78
2021/07/13 03:15:07;;;;;;;5.90;5.50;;;;;;;18.42;100.00;98242.19;10540317;28;20205;-78
2021/07/13 03:20:27;;;;;;;6.90;5.40;;;;;;;18.45;100.00;98232.88;10539371;28;20178;-77
2021/07/13 03:25:48;;;;;;;9.13;6.20;;;;;;;18.41;100.00;98232.28;10525525;28;20177;-77
2021/07/13 03:31:09;;;;;;;6.73;6.23;;;;;;;18.44;100.00;98242.47;10540387;28;20261;-78
2021/07/13 03:36:29;;;;;;;7.67;6.37;;;;;;;18.63;100.00;98243.94;10538389;28;20221;-77
2021/07/13 03:41:48;;;;;;;6.27;5.73;;;;;;;18.65;100.00;98240.69;10539452;28;20201;-78
2021/07/13 03:47:12;;;;;;;8.37;5.37;;;;;;;18.53;100.00;98245.22;10524715;28;20177;-78
2021/07/13 03:52:31;;;;;;;8.20;6.87;;;;;;;18.46;100.00;98244.78;10538623;28;20256;-78
2021/07/13 03:57:52;;;;;;;13.60;6.37;;;;;;;18.44;100.00;98239.69;10524266;28;20223;-78
2021/07/13 04:03:11;;;;;;;6.53;5.90;;;;;;;18.35;100.00;98238.97;10539676;28;20174;-80
2021/07/13 04:08:30;;;;;;;6.30;5.70;;;;;;;18.44;100.00;98253.63;10522747;28;20628;-80
2021/07/13 04:13:49;;;;;;;6.20;5.70;;;;;;;18.45;100.00;98249.59;10505695;28;20198;-80
2021/07/13 04:19:08;;;;;;;6.93;6.33;;;;;;;18.42;100.00;98249.78;10497391;28;20167;-79
2021/07/13 04:24:27;;;;;;;8.30;6.10;;;;;;;18.31;100.00;98251.53;10480716;28;20194;-80
2021/07/13 04:29:49;;;;;;;11.40;7.10;;;;;;;18.22;100.00;98254.34;10481805;28;20171;-78
2021/07/13 04:35:08;;;;;;;7.33;6.63;;;;;;;18.32;100.00;98256.63;10495140;28;20676;-78
2021/07/13 04:40:27;;;;;;;10.70;6.17;;;;;;;18.31;100.00;98259.88;10501353;28;20202;-77
2021/07/13 04:45:46;;;;;;;6.37;5.67;;;;;;;18.32;100.00;98250.28;10538816;28;20577;-76
2021/07/13 04:51:05;;;;;;;9.47;6.70;;;;;;;18.38;100.00;98226.88;10525799;28;20178;-77
2021/07/13 04:56:24;;;;;;;6.60;6.20;;;;;;;18.44;100.00;98214.63;10545782;28;20202;-77
2021/07/13 05:01:43;;;;;;;6.10;5.50;;;;;;;18.74;100.00;98216.31;10546264;28;20607;-78
2021/07/13 05:07:03;;;;;;;6.93;6.33;;;;;;;18.83;100.00;98202.31;10529225;28;20198;-77
2021/07/13 05:12:22;;;;;;;10.90;6.40;;;;;;;18.84;100.00;98198.28;10545412;28;20181;-80
2021/07/13 05:17:41;;;;;;;6.20;5.70;;;;;;;19.04;100.00;98192.09;10545497;28;20205;-77
2021/07/13 05:23:06;;;;;;;8.40;5.00;;;;;;;19.23;100.00;98181.13;10538503;28;20185;-77
2021/07/13 05:28:26;;;;;;;6.17;5.30;;;;;;;19.46;100.00;98185.13;10530317;28;20174;-78
2021/07/13 05:33:45;;;;;;;5.37;4.97;;;;;;;19.72;100.00;98172.91;10529782;28;20229;-79
2021/07/13 05:39:09;;;;;;;5.37;5.00;;;;;;;19.98;100.00;98173.09;10485973;28;20222;-78
2021/07/13 05:44:28;;;;;;;5.70;5.30;;;;;;;20.15;100.00;98167.28;10487777;28;20190;-78
2021/07/13 05:49:48;;;;;;;5.23;4.93;;;;;;;20.25;100.00;98181.91;10501708;28;20182;-78
2021/07/13 05:55:08;;;;;;;5.70;5.30;;;;;;;20.36;100.00;98180.03;10502554;28;20293;-78
2021/07/13 06:00:27;;;;;;;5.50;5.00;;;;;;;20.48;100.00;98175.38;10502168;28;20202;-82
2021/07/13 06:05:46;;;;;;;5.70;5.20;;;;;;;20.77;100.00;98190.03;10501542;28;20192;-78
2021/07/13 06:11:05;;;;;;;5.00;4.70;;;;;;;21.04;100.00;98192.44;10503164;28;20195;-78
2021/07/13 06:16:24;;;;;;;5.43;4.93;;;;;;;21.25;100.00;98177.94;10485943;28;20631;-79
2021/07/13 06:21:44;;;;;;;7.57;5.10;;;;;;;21.39;100.00;98167.91;10501289;28;20186;-79
2021/07/13 06:27:03;;;;;;;5.60;4.60;;;;;;;21.47;98.86;98169.75;10502529;28;20270;-80
2021/07/13 06:32:22;;;;;;;6.37;5.00;;;;;;;21.57;99.17;98173.19;10502860;28;20175;-79
2021/07/13 06:37:43;;;;;;;7.53;5.00;;;;;;;21.86;98.40;98177.31;10524715;28;20226;-80
2021/07/13 06:43:02;;;;;;;5.97;5.30;;;;;;;21.97;93.35;98173.81;10497313;28;20198;-79
2021/07/13 06:48:21;;;;;;;5.80;5.50;;;;;;;22.12;92.05;98168.84;10491021;28;20194;-80
2021/07/13 06:53:40;;;;;;;11.63;5.20;;;;;;;22.13;90.92;98170.38;10494378;28;20210;-80
2021/07/13 06:58:59;;;;;;;5.40;5.10;;;;;;;22.00;90.94;98170.81;10483615;28;20195;-79
2021/07/13 07:04:18;;;;;;;5.00;4.70;;;;;;;21.94;90.58;98175.59;10461381;28;20187;-80
2021/07/13 07:09:37;;;;;;;5.50;5.20;;;;;;;22.01;90.82;98171.59;10443601;28;20176;-80
2021/07/13 07:14:56;;;;;;;5.23;4.93;;;;;;;22.09;92.92;98167.06;10457502;28;20211;-80
2021/07/13 07:20:17;;;;;;;6.90;4.97;;;;;;;22.24;90.34;98167.69;10442615;28;20175;-81
2021/07/13 07:25:37;;;;;;;4.93;4.63;;;;;;;22.42;89.00;98156.88;10470410;28;20179;-81
2021/07/13 07:30:56;;;;;;;5.60;5.10;;;;;;;22.87;89.68;98158.63;10484186;28;20193;-81
2021/07/13 07:36:15;;;;;;;4.87;4.57;;;;;;;23.37;84.13;98155.53;10507104;28;20313;-82
2021/07/13 07:41:34;;;;;;;4.67;4.37;;;;;;;24.25;78.46;98152.78;10500751;28;20198;-81
2021/07/13 07:46:55;;;;;;;5.80;5.40;;;;;;;24.94;74.09;98138.31;10483722;28;20182;-79
2021/07/13 07:52:14;;;;;;;5.20;4.90;;;;;;;24.82;72.44;98136.84;10496998;28;20170;-78
2021/07/13 07:57:33;;;;;;;5.63;4.13;;;;;;;24.98;72.34;98133.94;10513847;28;20190;-79
2021/07/13 08:02:53;;;;;;;4.93;4.53;;;;;;;25.12;70.72;98129.31;10491472;28;20276;-79
2021/07/13 08:08:12;;;;;;;4.83;4.63;;;;;;;25.10;71.25;98138.28;10504221;28;20183;-80
2021/07/13 08:13:31;;;;;;;10.93;4.60;;;;;;;25.15;69.05;98140.28;10497686;28;20202;-79
2021/07/13 08:18:50;;;;;;;5.10;4.70;;;;;;;24.86;70.00;98130.94;10498126;28;20633;-78
2021/07/13 08:24:11;;;;;;;4.70;4.30;;;;;;;24.86;71.62;98126.06;10482277;28;20650;-78
2021/07/13 08:29:30;;;;;;;4.70;4.37;;;;;;;25.22;71.69;98125.66;10491004;28;20174;-78
2021/07/13 08:34:49;;;;;;;5.10;4.50;;;;;;;25.88;68.93;98123.22;10504256;28;20234;-79
2021/07/13 08:40:09;;;;;;;5.40;5.10;;;;;;;26.21;66.85;98125.72;10491006;28;20199;-79
2021/07/13 08:45:28;;;;;;;8.13;4.60;;;;;;;26.40;65.42;98117.38;10505758;28;20175;-80
2021/07/13 08:50:47;;;;;;;5.60;5.20;;;;;;;26.52;64.06;98108.25;10504415;28;20641;-81
2021/07/13 08:56:06;;;;;;;4.43;4.13;;;;;;;26.84;64.04;98103.53;10521259;28;20198;-80
2021/07/13 09:01:26;;;;;;;3.90;3.70;;;;;;;26.66;63.56;98109.91;10531562;28;20174;-81
2021/07/13 09:06:52;;;;;;;4.63;4.43;;;;;;;27.46;61.78;98122.75;10545593;28;20174;-80
2021/07/13 09:12:17;;;;;;;4.90;4.10;;;;;;;26.33;62.44;98132.78;10546003;28;20186;-80
2021/07/13 09:17:54;;;;;;;4.47;4.17;;;;;;;26.07;64.06;98137.41;10545995;28;20213;-79
2021/07/13 09:23:13;;;;;;;4.97;4.60;;;;;;;25.91;62.59;98135.47;10544874;28;20186;-78
2021/07/13 09:28:32;;;;;;;4.97;4.77;;;;;;;25.36;64.49;98141.44;10530549;28;20178;-79
2021/07/13 09:33:51;;;;;;;5.00;4.57;;;;;;;25.07;67.56;98161.03;10529783;28;20202;-79
2021/07/13 09:39:14;;;;;;;4.30;4.10;;;;;;;24.62;71.50;98172.97;10543599;28;20201;-79
2021/07/13 09:44:33;;;;;;;4.47;4.27;;;;;;;24.22;73.52;98190.38;10528425;28;20178;-79
2021/07/13 09:49:52;;;;;;;5.20;4.77;;;;;;;23.59;79.64;98211.72;10543543;28;20186;-79
2021/07/13 09:55:16;;;;;;;5.20;4.80;;;;;;;23.02;86.89;98207.66;10544045;28;20660;-77
2021/07/13 10:00:35;;;;;;;5.67;5.27;;;;;;;22.87;94.93;98206.31;10544171;28;20174;-78
2021/07/13 10:05:57;;;;;;;5.43;5.13;;;;;;;22.62;97.66;98196.75;10527644;28;20189;-78
2021/07/13 10:11:17;;;;;;;7.70;5.27;;;;;;;22.52;96.83;98208.66;10528320;28;20186;-78
2021/07/13 10:16:37;;;;;;;5.60;5.10;;;;;;;22.87;100.00;98195.88;10529051;28;20213;-78
2021/07/13 10:21:57;;;;;;;5.60;5.30;;;;;;;23.33;95.47;98190.72;10526982;28;20170;-79
2021/07/13 10:27:25;;;;;;;5.93;5.43;;;;;;;23.13;96.55;98174.09;10543334;28;20194;-78
2021/07/13 10:32:44;;;;;;;7.00;6.50;;;;;;;23.15;99.60;98170.75;10542852;28;20265;-78
2021/07/13 10:38:06;;;;;;;9.20;6.27;;;;;;;23.23;99.66;98160.59;10525391;28;20589;-78
2021/07/13 10:43:27;;;;;;;6.50;6.00;;;;;;;23.71;93.43;98150.72;10542225;28;20644;-80
2021/07/13 10:49:16;;;;;;;6.50;6.10;;;;;;;23.89;92.85;98134.19;10541803;28;20186;-81
2021/07/13 10:54:42;;;;;;;5.60;5.30;;;;;;;25.71;88.34;98113.31;10541106;28;20588;-78
2021/07/13 11:00:01;;;;;;;6.40;5.90;;;;;;;25.84;81.43;98099.41;10526840;28;20166;-81
2021/07/13 11:05:41;;;;;;;6.00;5.70;;;;;;;25.79;81.42;98116.38;10540630;28;20178;-79
2021/07/13 11:11:00;;;;;;;5.90;5.60;;;;;;;25.93;80.85;98111.13;10525912;28;20182;-80
2021/07/13 11:16:32;;;;;;;5.90;5.40;;;;;;;26.59;77.66;98104.06;10540331;28;20659;-79
2021/07/13 11:21:53;;;;;;;5.63;5.20;;;;;;;26.94;74.89;98088.50;10539746;28;20624;-79
2021/07/13 11:27:12;;;;;;;5.37;4.73;;;;;;;26.93;73.87;98100.34;10540462;28;20185;-80
2021/07/13 11:32:31;;;;;;;5.43;5.13;;;;;;;26.80;72.20;98103.84;10540624;28;20182;-79
2021/07/13 11:37:57;;;;;;;5.53;5.23;;;;;;;26.57;72.30;98098.22;10523450;28;20265;-79
2021/07/13 11:43:25;;;;;;;6.17;5.67;;;;;;;26.85;72.42;98100.16;10541738;28;20178;-80
2021/07/13 11:49:09;;;;;;;5.50;5.20;;;;;;;26.98;71.06;98117.19;10528538;28;20177;-80
2021/07/13 11:54:37;;;;;;;5.50;5.20;;;;;;;27.52;67.66;98135.47;10539944;28;20201;-80
2021/07/13 11:59:56;;;;;;;6.57;5.90;;;;;;;27.77;68.12;98158.78;10549393;28;20532;-81
2021/07/13 12:05:21;;;;;;;6.50;6.10;;;;;;;26.98;71.80;98162.34;10532570;28;20195;-81
2021/07/13 12:10:40;;;;;;;7.37;5.60;;;;;;;26.32;75.89;98170.75;10533517;28;20645;-81
2021/07/13 12:16:18;;;;;;;6.40;6.00;;;;;;;25.97;76.50;98184.88;10556625;28;20201;-81
2021/07/13 12:21:44;;;;;;;5.77;5.40;;;;;;;25.07;84.28;98203.28;10552116;28;20221;-81
2021/07/13 12:27:07;;;;;;;7.10;6.60;;;;;;;24.13;91.27;98239.16;10539526;28;20640;-80
2021/07/13 12:32:33;;;;;;;6.77;6.27;;;;;;;23.49;93.03;98251.78;10551161;28;20636;-84
2021/07/13 12:37:53;;;;;;;5.70;5.20;;;;;;;23.38;92.72;98262.97;10535585;28;20316;-83
2021/07/13 12:43:12;;;;;;;5.90;5.40;;;;;;;23.41;89.89;98254.31;10554692;28;20166;-83
2021/07/13 12:48:32;;;;;;;4.60;4.30;;;;;;;23.24;87.21;98263.16;10549786;28;20177;-83
2021/07/13 12:54:08;;;;;;;4.67;4.40;;;;;;;23.10;88.37;98252.91;10542696;28;20198;-83
2021/07/13 12:59:27;;;;;;;4.97;4.57;;;;;;;22.97;91.69;98261.72;10547956;28;20186;-83
2021/07/13 13:04:46;;;;;;;4.37;3.97;;;;;;;22.64;91.48;98271.94;10542601;28;20178;-83
2021/07/13 13:10:06;;;;;;;4.47;4.17;;;;;;;22.44;95.20;98276.88;10527000;28;20170;-81
2021/07/13 13:15:26;;;;;;;5.03;4.63;;;;;;;22.31;99.24;98287.75;10546066;28;20210;-81
2021/07/13 13:20:46;;;;;;;4.73;4.43;;;;;;;22.22;100.00;98280.22;10546280;28;20633;-81
2021/07/13 13:26:04;;;;;;;4.43;4.03;;;;;;;22.02;100.00;98280.31;10546122;28;20181;-81
2021/07/13 13:31:25;;;;;;;6.30;5.17;;;;;;;21.90;100.00;98281.47;10508446;28;20190;-81
2021/07/13 13:36:44;;;;;;;5.77;5.40;;;;;;;21.83;100.00;98281.13;10528359;28;20225;-82
2021/07/13 13:42:03;;;;;;;6.50;5.90;;;;;;;21.60;100.00;98292.56;10530630;28;20576;-81
2021/07/13 13:47:22;;;;;;;5.50;5.20;;;;;;;21.43;100.00;98299.97;10545137;28;20174;-81
2021/07/13 13:52:41;;;;;;;5.43;4.93;;;;;;;21.15;100.00;98298.88;10527971;28;20170;-83
2021/07/13 13:58:00;;;;;;;7.40;6.77;;;;;;;21.04;100.00;98301.50;10544237;28;20185;-84
2021/07/13 14:03:19;;;;;;;7.60;6.90;;;;;;;20.90;100.00;98319.09;10545847;28;20205;-83
2021/07/13 14:08:40;;;;;;;9.13;8.40;;;;;;;20.48;100.00;98338.22;10529032;28;20170;-81
2021/07/13 14:13:59;;;;;;;5.57;5.17;;;;;;;20.01;100.00;98342.44;10528801;28;20202;-82
2021/07/13 14:19:18;;;;;;;4.80;4.40;;;;;;;19.44;100.00;98329.88;10528392;28;20174;-82
2021/07/13 14:24:37;;;;;;;4.27;4.07;;;;;;;19.26;100.00;98325.19;10526229;28;20186;-81
2021/07/13 14:29:56;;;;;;;5.00;4.60;;;;;;;19.08;100.00;98323.72;10520419;28;20186;-81
2021/07/13 14:35:15;;;;;;;4.07;3.87;;;;;;;19.02;100.00;98351.47;10541336;28;20222;-81
2021/07/13 14:40:34;;;;;;;3.50;3.30;;;;;;;18.61;100.00;98343.16;10542620;28;20194;-81
2021/07/13 14:45:54;;;;;;;3.40;3.20;;;;;;;18.79;100.00;98341.06;10543307;28;20174;-81
2021/07/13 14:51:13;;;;;;;3.00;2.80;;;;;;;19.00;100.00;98320.50;10526111;28;20260;-81
2021/07/13 14:56:32;;;;;;;4.73;3.00;;;;;;;19.15;100.00;98313.00;10526935;28;20206;-81
2021/07/13 15:01:52;;;;;;;3.10;2.90;;;;;;;19.10;100.00;98293.41;10535612;28;20208;-82
2021/07/13 15:07:12;;;;;;;3.20;3.00;;;;;;;19.23;100.00;98295.47;10541273;28;20174;-81
2021/07/13 15:12:31;;;;;;;3.60;3.00;;;;;;;19.51;100.00;98329.50;10528120;28;20205;-82
2021/07/13 15:17:52;;;;;;;3.00;2.53;;;;;;;19.18;100.00;98351.13;10543801;28;20171;-81
2021/07/13 15:23:11;;;;;;;3.30;3.00;;;;;;;19.36;100.00;98334.28;10545675;28;20268;-82
2021/07/13 15:28:30;;;;;;;2.67;2.40;;;;;;;19.03;100.00;98366.19;10548580;28;20169;-81
2021/07/13 15:33:49;;;;;;;3.63;2.60;;;;;;;18.79;100.00;98407.16;10525216;28;20604;-81
2021/07/13 15:39:08;;;;;;;2.50;2.30;;;;;;;18.64;100.00;98421.00;10539142;28;20202;-82
2021/07/13 15:44:31;;;;;;;3.40;1.80;;;;;;;18.67;100.00;98416.50;10540784;28;20190;-81
2021/07/13 15:49:50;;;;;;;2.20;2.10;;;;;;;18.59;100.00;98429.22;10539745;28;20174;-82
2021/07/13 15:55:09;;;;;;;1.80;1.70;;;;;;;18.72;100.00;98421.44;10540459;28;20209;-82
2021/07/13 16:00:29;;;;;;;2.83;2.13;;;;;;;18.83;100.00;98425.28;10539519;28;20186;-82
2021/07/13 16:05:48;;;;;;;2.90;1.97;;;;;;;18.92;100.00;98436.38;10538279;28;20212;-82
2021/07/13 16:11:07;;;;;;;2.23;1.80;;;;;;;18.88;100.00;98441.38;10539321;28;20173;-82
2021/07/13 16:16:26;;;;;;;2.40;2.20;;;;;;;18.82;100.00;98448.81;10539213;28;20209;-82
2021/07/13 16:21:45;;;;;;;11.03;2.53;;;;;;;18.73;100.00;98448.06;10523216;28;20170;-81
2021/07/13 16:27:04;;;;;;;2.57;2.37;;;;;;;18.56;100.00;98458.00;10529760;28;20644;-82
2021/07/13 16:32:23;;;;;;;2.30;2.20;;;;;;;18.81;100.00;98464.00;10512026;28;20268;-82
2021/07/13 16:37:46;;;;;;;4.60;2.20;;;;;;;18.89;100.00;98445.72;10536462;28;20585;-82
2021/07/13 16:43:05;;;;;;;2.60;2.50;;;;;;;18.98;100.00;98434.50;10539299;28;20206;-81
2021/07/13 16:48:25;;;;;;;2.87;2.70;;;;;;;19.00;100.00;98418.09;10546963;28;20178;-81
2021/07/13 16:53:43;;;;;;;2.77;2.23;;;;;;;18.97;100.00;98399.53;10545747;28;20197;-81
2021/07/13 16:59:03;;;;;;;2.80;2.60;;;;;;;18.98;100.00;98367.59;10545803;28;20256;-81
2021/07/13 17:04:21;;;;;;;2.60;2.37;;;;;;;19.03;100.00;98364.19;10577370;28;20579;-81
2021/07/13 17:09:42;;;;;;;2.53;2.43;;;;;;;18.82;100.00;98362.41;10530058;28;20273;-81
2021/07/13 17:15:02;;;;;;;2.67;2.27;;;;;;;18.68;100.00;98382.59;10545945;28;20201;-82
2021/07/13 17:20:22;;;;;;;2.00;1.90;;;;;;;18.66;100.00;98404.56;10529104;28;20261;-82
2021/07/13 17:30:51;;;;;;;3.10;1.93;;;;;;;18.71;100.00;98408.75;10478925;22;20234;-80
2021/07/13 17:36:12;;;;;;;2.10;1.90;;;;;;;18.83;100.00;98411.34;10480830;28;20297;-87
2021/07/13 17:41:34;;;;;;;2.53;2.17;;;;;;;18.81;100.00;98402.69;10502028;28;20170;-80
2021/07/13 17:46:54;;;;;;;2.40;2.30;;;;;;;18.77;100.00;98418.78;10498145;28;20195;-90
2021/07/13 17:52:13;;;;;;;2.90;2.30;;;;;;;18.70;100.00;98438.63;10469207;28;20610;-89
2021/07/13 17:57:32;;;;;;;2.50;2.30;;;;;;;18.79;100.00;98458.13;10477388;28;20233;-86
2021/07/13 18:02:51;;;;;;;2.60;2.20;;;;;;;18.56;100.00;98450.44;10475980;28;20186;-87
2021/07/13 18:08:10;;;;;;;2.83;2.20;;;;;;;18.41;100.00;98438.38;10487618;28;20620;-86
2021/07/13 18:13:29;;;;;;;4.53;2.30;;;;;;;18.03;100.00;98437.31;10505894;28;20210;-87
2021/07/13 18:18:48;;;;;;;2.10;1.90;;;;;;;17.81;100.00;98419.97;10461148;28;20180;-81
2021/07/13 18:24:07;;;;;;;1.70;1.60;;;;;;;17.93;100.00;98418.28;10484243;28;20186;-83
2021/07/13 18:29:26;;;;;;;2.17;1.97;;;;;;;17.86;100.00;98429.72;10465848;28;20816;-84
2021/07/13 18:34:45;;;;;;;1.57;1.47;;;;;;;17.71;100.00;98442.69;10457887;28;20218;-85
2021/07/13 18:40:05;;;;;;;2.80;1.70;;;;;;;17.64;100.00;98441.00;10459721;28;20258;-84
2021/07/13 18:45:24;;;;;;;2.77;1.63;;;;;;;17.67;100.00;98450.41;10456384;28;20195;-83
2021/07/13 18:50:45;;;;;;;3.23;1.60;;;;;;;17.62;100.00;98467.69;10457207;28;20175;-84
2021/07/13 18:56:04;;;;;;;3.13;1.60;;;;;;;17.55;100.00;98484.69;10457228;28;20198;-85
2021/07/13 19:01:24;;;;;;;3.80;1.60;;;;;;;17.48;100.00;98484.97;10458809;28;20179;-82
2021/07/13 19:06:43;;;;;;;1.57;1.13;;;;;;;17.52;100.00;98512.66;10443615;28;20645;-85
2021/07/13 19:12:02;;;;;;;1.77;1.03;;;;;;;17.53;100.00;98522.53;10456978;28;20175;-85
2021/07/13 19:17:21;;;;;;;1.83;1.03;;;;;;;17.53;100.00;98512.19;10457672;28;20556;-84
2021/07/13 19:22:40;;;;;;;4.00;1.10;;;;;;;17.44;100.00;98495.50;10419531;28;20180;-85
2021/07/13 19:28:01;;;;;;;6.93;1.00;;;;;;;17.40;100.00;98494.84;10415182;28;20224;-83
2021/07/13 19:33:29;;;;;;;3.13;1.10;;;;;;;17.45;100.00;98491.44;10416447;28;20195;-87
2021/07/13 19:38:48;;;;;;;3.83;1.40;;;;;;;17.52;100.00;98485.63;10437689;28;20270;-86
2021/07/13 19:44:07;;;;;;;5.77;2.47;;;;;;;17.41;100.00;98488.06;10456109;28;20625;-84
2021/07/13 19:49:26;;;;;;;14.23;3.07;;;;;;;17.33;100.00;98495.13;10429701;28;20184;-84
2021/07/13 19:54:45;;;;;;;7.63;3.40;;;;;;;17.27;100.00;98513.63;10415891;28;20208;-90
2021/07/13 20:00:08;;;;;;;13.07;3.37;;;;;;;17.20;100.00;98500.00;10414526;28;20167;-85
2021/07/13 20:05:27;;;;;;;3.20;2.60;;;;;;;17.28;100.00;98498.53;10400249;28;20625;-85
2021/07/13 20:10:46;;;;;;;4.43;3.50;;;;;;;17.31;100.00;98477.38;10399752;28;20188;-86
2021/07/13 20:16:05;;;;;;;13.27;4.10;;;;;;;17.18;100.00;98460.75;10399395;28;20216;-84
2021/07/13 20:21:23;;;;;;;3.33;3.03;;;;;;;17.08;100.00;98453.63;10443967;28;20218;-84
2021/07/13 20:26:42;;;;;;;7.20;3.63;;;;;;;17.13;100.00;98466.91;10439376;28;20183;-83
2021/07/13 20:32:03;;;;;;;13.20;5.13;;;;;;;17.03;100.00;98478.44;10455847;28;20564;-82
2021/07/13 20:37:22;;;;;;;6.77;3.10;;;;;;;16.93;100.00;98483.19;10453512;28;20293;-82
2021/07/13 20:42:41;;;;;;;3.40;3.20;;;;;;;16.97;100.00;98492.16;10439495;28;20207;-83
2021/07/13 20:48:01;;;;;;;4.10;3.80;;;;;;;16.95;100.00;98494.63;10440412;28;20629;-82
2021/07/13 20:53:19;;;;;;;3.17;2.97;;;;;;;16.82;100.00;98480.03;10455313;28;20195;-84
2021/07/13 20:58:38;;;;;;;3.50;3.30;;;;;;;16.79;100.00;98467.06;10454145;28;20526;-83
2021/07/13 21:03:57;;;;;;;3.63;3.40;;;;;;;16.79;100.00;98471.84;10453501;28;20207;-85
2021/07/13 21:09:16;;;;;;;3.50;3.30;;;;;;;16.84;100.00;98482.34;10455253;28;20183;-82
2021/07/13 21:14:36;;;;;;;5.53;2.83;;;;;;;16.77;100.00;98488.97;10453566;28;20199;-84
2021/07/13 21:19:55;;;;;;;3.60;3.37;;;;;;;16.75;100.00;98496.22;10455063;28;20621;-85
2021/07/13 21:25:14;;;;;;;2.67;2.53;;;;;;;16.75;100.00;98490.66;10439612;28;20728;-84
2021/07/13 21:30:33;;;;;;;2.57;2.43;;;;;;;16.69;100.00;98478.56;10453008;28;20223;-82
2021/07/13 21:35:52;;;;;;;2.77;2.63;;;;;;;16.61;100.00;98496.72;10444391;28;20207;-85
2021/07/13 21:41:11;;;;;;;5.30;2.80;;;;;;;16.61;100.00;98488.38;10419327;28;20183;-82
2021/07/13 21:46:33;;;;;;;2.30;2.10;;;;;;;16.70;100.00;98471.03;10405422;28;20207;-84
2021/07/13 21:51:52;;;;;;;4.00;2.60;;;;;;;16.64;100.00;98462.50;10420122;28;20566;-84
2021/07/13 21:57:11;;;;;;;3.20;2.10;;;;;;;16.55;100.00;98475.56;10418332;28;20744;-81
2021/07/13 22:02:30;;;;;;;2.10;2.00;;;;;;;16.48;100.00;98492.47;10419899;28;20188;-82
2021/07/13 22:07:49;;;;;;;3.27;2.13;;;;;;;16.46;100.00;98503.25;10405109;28;20180;-84
2021/07/13 22:13:09;;;;;;;8.90;2.20;;;;;;;16.42;100.00;98499.84;10403153;28;20184;-83
2021/07/13 22:18:27;;;;;;;3.47;2.20;;;;;;;16.45;100.00;98496.16;10419334;28;20184;-85
2021/07/13 22:23:46;;;;;;;2.83;2.63;;;;;;;16.45;100.00;98512.81;10419170;28;20176;-81
2021/07/13 22:29:07;;;;;;;4.13;2.70;;;;;;;16.43;100.00;98495.84;10417258;28;20219;-82
2021/07/13 22:34:27;;;;;;;3.23;2.50;;;;;;;16.40;100.00;98493.94;10426686;28;20211;-83
2021/07/13 22:39:46;;;;;;;3.40;2.43;;;;;;;16.54;100.00;98474.78;10459733;28;20254;-84
2021/07/13 22:45:09;;;;;;;2.80;1.97;;;;;;;16.48;100.00;98498.81;10457337;28;20601;-86
2021/07/13 22:50:27;;;;;;;4.93;2.10;;;;;;;16.50;100.00;98506.66;10459204;28;20572;-86
2021/07/13 22:55:46;;;;;;;3.20;2.30;;;;;;;16.51;100.00;98511.78;10460643;28;20211;-83
2021/07/13 23:01:05;;;;;;;2.50;2.00;;;;;;;16.57;100.00;98523.06;10458810;28;20205;-81
2021/07/13 23:06:24;;;;;;;2.27;2.00;;;;;;;16.60;100.00;98547.16;10443463;28;20183;-83
2021/07/13 23:11:43;;;;;;;4.13;2.43;;;;;;;16.50;100.00;98534.44;10457956;28;20198;-85
2021/07/13 23:17:02;;;;;;;3.33;2.40;;;;;;;16.56;100.00;98541.00;10458483;28;20211;-88
2021/07/13 23:22:23;;;;;;;4.97;2.53;;;;;;;16.46;100.00;98531.03;10458466;28;20180;-88
2021/07/13 23:27:44;;;;;;;2.90;2.00;;;;;;;16.42;100.00;98522.84;10457290;28;20314;-84
2021/07/13 23:33:03;;;;;;;4.53;2.40;;;;;;;16.37;100.00;98505.97;10458557;28;20175;-86
2021/07/13 23:38:22;;;;;;;2.37;2.23;;;;;;;16.32;100.00;98525.97;10417490;28;20562;-90
2021/07/13 23:43:42;;;;;;;10.47;2.03;;;;;;;16.31;100.00;98518.88;10416781;28;20218;-84
2021/07/13 23:49:01;;;;;;;3.97;2.50;;;;;;;16.33;100.00;98510.88;10416240;28;20543;-82
2021/07/13 23:54:19;;;;;;;5.00;2.70;;;;;;;16.32;100.00;98498.22;10415907;28;20290;-81
2021/07/13 23:59:38;;;;;;;2.93;2.50;;;;;;;16.18;100.00;98504.25;10414802;28;20187;-83
